sensor_id;sensor_type;location;lat;lon;timestamp;P1;durP1;ratioP1;P2;durP2;ratioP2
946;SDS011;460;48.734;9.152;2023-09-18T00:02:09;3.10;;;2.80;;
946;SDS011;460;48.734;9.152;2023-09-18T00:04:36;3.13;;;2.90;;
946;SDS011;460;48.734;9.152;2023-09-18T00:07:03;5.63;;;3.70;;
946;SDS011;460;48.734;9.152;2023-09-18T00:09:29;3.30;;;2.40;;
946;SDS011;460;48.734;9.152;2023-09-18T00:11:58;5.30;;;2.83;;
946;SDS011;460;48.734;9.152;2023-09-18T00:14:25;3.70;;;3.00;;
946;SDS011;460;48.734;9.152;2023-09-18T00:16:52;3.13;;;2.83;;
946;SDS011;460;48.734;9.152;2023-09-18T00:19:19;2.37;;;2.20;;
946;SDS011;460;48.734;9.152;2023-09-18T00:21:46;4.20;;;2.73;;
946;SDS011;460;48.734;9.152;2023-09-18T00:24:12;2.97;;;2.60;;
946;SDS011;460;48.734;9.152;2023-09-18T00:26:39;4.10;;;3.03;;
946;SDS011;460;48.734;9.152;2023-09-18T00:29:07;5.73;;;2.87;;
946;SDS011;460;48.734;9.152;2023-09-18T00:31:34;4.20;;;3.63;;
946;SDS011;460;48.734;9.152;2023-09-18T00:34:01;3.30;;;3.00;;
946;SDS011;460;48.734;9.152;2023-09-18T00:36:28;3.30;;;3.00;;
946;SDS011;460;48.734;9.152;2023-09-18T00:38:54;3.57;;;2.57;;
946;SDS011;460;48.734;9.152;2023-09-18T00:41:21;3.27;;;2.57;;
946;SDS011;460;48.734;9.152;2023-09-18T00:43:48;2.40;;;2.20;;
946;SDS011;460;48.734;9.152;2023-09-18T00:46:16;2.43;;;2.23;;
946;SDS011;460;48.734;9.152;2023-09-18T00:48:44;2.70;;;2.43;;
946;SDS011;460;48.734;9.152;2023-09-18T00:51:12;2.83;;;2.60;;
946;SDS011;460;48.734;9.152;2023-09-18T00:53:41;2.87;;;2.47;;
946;SDS011;460;48.734;9.152;2023-09-18T00:56:11;3.47;;;3.17;;
946;SDS011;460;48.734;9.152;2023-09-18T00:58:39;4.13;;;3.23;;
946;SDS011;460;48.734;9.152;2023-09-18T01:01:06;3.27;;;2.93;;
946;SDS011;460;48.734;9.152;2023-09-18T01:03:36;2.73;;;2.47;;
946;SDS011;460;48.734;9.152;2023-09-18T01:06:03;3.80;;;2.50;;
946;SDS011;460;48.734;9.152;2023-09-18T01:08:29;3.13;;;2.60;;
946;SDS011;460;48.734;9.152;2023-09-18T01:11:00;3.00;;;2.67;;
946;SDS011;460;48.734;9.152;2023-09-18T01:13:35;3.00;;;2.70;;
946;SDS011;460;48.734;9.152;2023-09-18T01:16:12;2.50;;;2.30;;
946;SDS011;460;48.734;9.152;2023-09-18T01:18:50;2.90;;;2.40;;
946;SDS011;460;48.734;9.152;2023-09-18T01:21:18;4.10;;;2.50;;
946;SDS011;460;48.734;9.152;2023-09-18T01:23:49;3.37;;;2.60;;
946;SDS011;460;48.734;9.152;2023-09-18T01:26:17;2.77;;;2.47;;
946;SDS011;460;48.734;9.152;2023-09-18T01:28:44;2.77;;;2.47;;
946;SDS011;460;48.734;9.152;2023-09-18T01:31:12;2.70;;;2.50;;
946;SDS011;460;48.734;9.152;2023-09-18T01:33:41;2.20;;;1.90;;
946;SDS011;460;48.734;9.152;2023-09-18T01:36:11;3.10;;;2.77;;
946;SDS011;460;48.734;9.152;2023-09-18T01:38:41;3.07;;;2.83;;
946;SDS011;460;48.734;9.152;2023-09-18T01:41:11;2.50;;;2.13;;
946;SDS011;460;48.734;9.152;2023-09-18T01:43:40;2.30;;;2.10;;
946;SDS011;460;48.734;9.152;2023-09-18T01:46:08;4.90;;;2.40;;
946;SDS011;460;48.734;9.152;2023-09-18T01:48:37;3.57;;;2.97;;
946;SDS011;460;48.734;9.152;2023-09-18T01:51:13;2.60;;;2.10;;
946;SDS011;460;48.734;9.152;2023-09-18T01:53:44;4.83;;;2.83;;
946;SDS011;460;48.734;9.152;2023-09-18T01:56:14;2.40;;;2.20;;
946;SDS011;460;48.734;9.152;2023-09-18T01:58:43;2.70;;;2.10;;
946;SDS011;460;48.734;9.152;2023-09-18T02:01:11;1.50;;;1.40;;
946;SDS011;460;48.734;9.152;2023-09-18T02:03:39;1.87;;;1.70;;
946;SDS011;460;48.734;9.152;2023-09-18T02:06:08;2.77;;;2.50;;
946;SDS011;460;48.734;9.152;2023-09-18T02:08:38;3.33;;;1.90;;
946;SDS011;460;48.734;9.152;2023-09-18T02:11:06;2.53;;;1.10;;
946;SDS011;460;48.734;9.152;2023-09-18T02:13:34;5.53;;;1.50;;
946;SDS011;460;48.734;9.152;2023-09-18T02:16:03;6.93;;;1.60;;
946;SDS011;460;48.734;9.152;2023-09-18T02:18:31;1.20;;;0.83;;
946;SDS011;460;48.734;9.152;2023-09-18T02:21:00;1.40;;;1.30;;
946;SDS011;460;48.734;9.152;2023-09-18T02:23:28;4.30;;;1.20;;
946;SDS011;460;48.734;9.152;2023-09-18T02:25:56;1.30;;;1.20;;
946;SDS011;460;48.734;9.152;2023-09-18T02:28:23;1.83;;;1.33;;
946;SDS011;460;48.734;9.152;2023-09-18T02:30:52;3.43;;;2.70;;
946;SDS011;460;48.734;9.152;2023-09-18T02:33:18;4.97;;;2.47;;
946;SDS011;460;48.734;9.152;2023-09-18T02:35:45;2.33;;;1.70;;
946;SDS011;460;48.734;9.152;2023-09-18T02:38:12;2.40;;;1.90;;
946;SDS011;460;48.734;9.152;2023-09-18T02:40:39;3.60;;;2.20;;
946;SDS011;460;48.734;9.152;2023-09-18T02:43:06;6.17;;;2.20;;
946;SDS011;460;48.734;9.152;2023-09-18T02:45:32;3.37;;;1.83;;
946;SDS011;460;48.734;9.152;2023-09-18T02:48:00;5.00;;;1.90;;
946;SDS011;460;48.734;9.152;2023-09-18T02:50:27;3.40;;;2.40;;
946;SDS011;460;48.734;9.152;2023-09-18T02:52:54;2.23;;;2.03;;
946;SDS011;460;48.734;9.152;2023-09-18T02:55:21;3.23;;;1.70;;
946;SDS011;460;48.734;9.152;2023-09-18T02:57:48;2.93;;;1.47;;
946;SDS011;460;48.734;9.152;2023-09-18T03:00:15;2.50;;;1.90;;
946;SDS011;460;48.734;9.152;2023-09-18T03:02:42;4.40;;;1.80;;
946;SDS011;460;48.734;9.152;2023-09-18T03:05:10;4.50;;;1.67;;
946;SDS011;460;48.734;9.152;2023-09-18T03:07:37;6.50;;;2.10;;
946;SDS011;460;48.734;9.152;2023-09-18T03:10:04;3.70;;;1.97;;
946;SDS011;460;48.734;9.152;2023-09-18T03:12:32;3.73;;;2.13;;
946;SDS011;460;48.734;9.152;2023-09-18T03:14:59;2.93;;;1.33;;
946;SDS011;460;48.734;9.152;2023-09-18T03:17:26;5.20;;;2.30;;
946;SDS011;460;48.734;9.152;2023-09-18T03:19:53;3.07;;;1.73;;
946;SDS011;460;48.734;9.152;2023-09-18T03:22:21;2.90;;;1.60;;
946;SDS011;460;48.734;9.152;2023-09-18T03:24:48;2.10;;;1.40;;
946;SDS011;460;48.734;9.152;2023-09-18T03:27:14;3.70;;;2.20;;
946;SDS011;460;48.734;9.152;2023-09-18T03:29:41;4.97;;;1.67;;
946;SDS011;460;48.734;9.152;2023-09-18T03:32:08;2.63;;;1.93;;
946;SDS011;460;48.734;9.152;2023-09-18T03:34:37;1.70;;;1.60;;
946;SDS011;460;48.734;9.152;2023-09-18T03:37:04;3.63;;;2.43;;
946;SDS011;460;48.734;9.152;2023-09-18T03:39:32;2.87;;;1.80;;
946;SDS011;460;48.734;9.152;2023-09-18T03:41:59;2.83;;;2.20;;
946;SDS011;460;48.734;9.152;2023-09-18T03:44:26;2.70;;;2.10;;
946;SDS011;460;48.734;9.152;2023-09-18T03:46:53;2.27;;;1.53;;
946;SDS011;460;48.734;9.152;2023-09-18T03:49:19;3.47;;;2.40;;
946;SDS011;460;48.734;9.152;2023-09-18T03:51:46;2.03;;;1.80;;
946;SDS011;460;48.734;9.152;2023-09-18T03:54:13;9.63;;;1.87;;
946;SDS011;460;48.734;9.152;2023-09-18T03:56:41;2.40;;;1.63;;
946;SDS011;460;48.734;9.152;2023-09-18T03:59:08;4.60;;;2.00;;
946;SDS011;460;48.734;9.152;2023-09-18T04:01:35;1.90;;;1.73;;
946;SDS011;460;48.734;9.152;2023-09-18T04:04:02;5.10;;;1.60;;
946;SDS011;460;48.734;9.152;2023-09-18T04:06:35;3.07;;;1.97;;
946;SDS011;460;48.734;9.152;2023-09-18T04:09:02;1.60;;;1.30;;
946;SDS011;460;48.734;9.152;2023-09-18T04:11:29;2.00;;;1.43;;
946;SDS011;460;48.734;9.152;2023-09-18T04:13:58;2.67;;;2.43;;
946;SDS011;460;48.734;9.152;2023-09-18T04:16:26;4.00;;;2.50;;
946;SDS011;460;48.734;9.152;2023-09-18T04:18:53;4.20;;;3.30;;
946;SDS011;460;48.734;9.152;2023-09-18T04:21:20;2.13;;;1.90;;
946;SDS011;460;48.734;9.152;2023-09-18T04:23:47;3.37;;;3.07;;
946;SDS011;460;48.734;9.152;2023-09-18T04:26:20;4.83;;;2.00;;
946;SDS011;460;48.734;9.152;2023-09-18T04:29:11;6.47;;;3.23;;
946;SDS011;460;48.734;9.152;2023-09-18T04:31:39;3.63;;;2.50;;
946;SDS011;460;48.734;9.152;2023-09-18T04:34:06;7.27;;;2.97;;
946;SDS011;460;48.734;9.152;2023-09-18T04:36:32;3.90;;;1.73;;
946;SDS011;460;48.734;9.152;2023-09-18T04:39:01;3.30;;;2.43;;
946;SDS011;460;48.734;9.152;2023-09-18T04:41:29;2.17;;;1.83;;
946;SDS011;460;48.734;9.152;2023-09-18T04:43:56;3.23;;;1.90;;
946;SDS011;460;48.734;9.152;2023-09-18T04:46:25;1.60;;;1.50;;
946;SDS011;460;48.734;9.152;2023-09-18T04:48:52;5.10;;;2.03;;
946;SDS011;460;48.734;9.152;2023-09-18T04:51:24;6.13;;;2.03;;
946;SDS011;460;48.734;9.152;2023-09-18T04:53:53;2.20;;;2.00;;
946;SDS011;460;48.734;9.152;2023-09-18T04:57:15;2.40;;;1.83;;
946;SDS011;460;48.734;9.152;2023-09-18T04:59:42;3.13;;;1.90;;
946;SDS011;460;48.734;9.152;2023-09-18T05:02:10;2.30;;;1.90;;
946;SDS011;460;48.734;9.152;2023-09-18T05:04:37;2.40;;;2.20;;
946;SDS011;460;48.734;9.152;2023-09-18T05:07:03;2.17;;;1.80;;
946;SDS011;460;48.734;9.152;2023-09-18T05:09:30;2.57;;;1.60;;
946;SDS011;460;48.734;9.152;2023-09-18T05:11:57;2.63;;;1.83;;
946;SDS011;460;48.734;9.152;2023-09-18T05:14:24;2.40;;;1.90;;
946;SDS011;460;48.734;9.152;2023-09-18T05:16:51;3.47;;;1.70;;
946;SDS011;460;48.734;9.152;2023-09-18T05:19:19;2.40;;;2.03;;
946;SDS011;460;48.734;9.152;2023-09-18T05:21:46;1.83;;;1.70;;
946;SDS011;460;48.734;9.152;2023-09-18T05:24:13;2.27;;;1.70;;
946;SDS011;460;48.734;9.152;2023-09-18T05:26:40;1.63;;;1.30;;
946;SDS011;460;48.734;9.152;2023-09-18T05:29:07;4.13;;;2.17;;
946;SDS011;460;48.734;9.152;2023-09-18T05:31:35;2.13;;;1.80;;
946;SDS011;460;48.734;9.152;2023-09-18T05:34:02;2.60;;;1.70;;
946;SDS011;460;48.734;9.152;2023-09-18T05:36:30;1.97;;;1.77;;
946;SDS011;460;48.734;9.152;2023-09-18T05:39:01;2.27;;;1.50;;
946;SDS011;460;48.734;9.152;2023-09-18T05:41:35;8.43;;;1.77;;
946;SDS011;460;48.734;9.152;2023-09-18T05:44:05;2.30;;;1.67;;
946;SDS011;460;48.734;9.152;2023-09-18T05:46:35;1.80;;;1.70;;
946;SDS011;460;48.734;9.152;2023-09-18T05:49:03;3.13;;;1.97;;
946;SDS011;460;48.734;9.152;2023-09-18T05:51:31;2.40;;;2.20;;
946;SDS011;460;48.734;9.152;2023-09-18T05:53:58;2.47;;;2.17;;
946;SDS011;460;48.734;9.152;2023-09-18T05:56:25;2.40;;;2.00;;
946;SDS011;460;48.734;9.152;2023-09-18T05:58:52;3.93;;;1.80;;
946;SDS011;460;48.734;9.152;2023-09-18T06:01:20;1.90;;;1.70;;
946;SDS011;460;48.734;9.152;2023-09-18T06:03:47;1.50;;;1.40;;
946;SDS011;460;48.734;9.152;2023-09-18T06:06:14;3.47;;;2.23;;
946;SDS011;460;48.734;9.152;2023-09-18T06:08:42;2.40;;;1.50;;
946;SDS011;460;48.734;9.152;2023-09-18T06:11:08;2.33;;;1.40;;
946;SDS011;460;48.734;9.152;2023-09-18T06:13:35;3.40;;;2.10;;
946;SDS011;460;48.734;9.152;2023-09-18T06:16:04;2.47;;;2.10;;
946;SDS011;460;48.734;9.152;2023-09-18T06:18:33;5.33;;;1.80;;
946;SDS011;460;48.734;9.152;2023-09-18T06:21:00;2.67;;;1.97;;
946;SDS011;460;48.734;9.152;2023-09-18T06:23:28;3.80;;;2.17;;
946;SDS011;460;48.734;9.152;2023-09-18T06:25:58;3.30;;;2.40;;
946;SDS011;460;48.734;9.152;2023-09-18T06:28:29;3.30;;;1.70;;
946;SDS011;460;48.734;9.152;2023-09-18T06:31:01;2.90;;;2.03;;
946;SDS011;460;48.734;9.152;2023-09-18T06:33:29;5.23;;;2.17;;
946;SDS011;460;48.734;9.152;2023-09-18T06:35:59;1.97;;;1.57;;
946;SDS011;460;48.734;9.152;2023-09-18T06:38:35;3.67;;;1.80;;
946;SDS011;460;48.734;9.152;2023-09-18T06:41:13;8.03;;;2.20;;
946;SDS011;460;48.734;9.152;2023-09-18T06:43:46;4.57;;;2.70;;
946;SDS011;460;48.734;9.152;2023-09-18T06:46:13;2.73;;;1.63;;
946;SDS011;460;48.734;9.152;2023-09-18T06:48:40;3.27;;;2.23;;
946;SDS011;460;48.734;9.152;2023-09-18T06:51:10;3.07;;;1.87;;
946;SDS011;460;48.734;9.152;2023-09-18T06:53:38;4.33;;;2.50;;
946;SDS011;460;48.734;9.152;2023-09-18T06:56:07;5.23;;;1.70;;
946;SDS011;460;48.734;9.152;2023-09-18T06:58:36;1.97;;;1.60;;
946;SDS011;460;48.734;9.152;2023-09-18T07:01:04;2.43;;;2.23;;
946;SDS011;460;48.734;9.152;2023-09-18T07:03:32;1.40;;;1.30;;
946;SDS011;460;48.734;9.152;2023-09-18T07:06:01;3.73;;;1.70;;
946;SDS011;460;48.734;9.152;2023-09-18T07:08:29;6.70;;;1.90;;
946;SDS011;460;48.734;9.152;2023-09-18T07:10:58;3.10;;;1.87;;
946;SDS011;460;48.734;9.152;2023-09-18T07:13:27;3.17;;;1.40;;
946;SDS011;460;48.734;9.152;2023-09-18T07:15:55;3.53;;;2.17;;
946;SDS011;460;48.734;9.152;2023-09-18T07:18:25;3.90;;;1.57;;
946;SDS011;460;48.734;9.152;2023-09-18T07:20:52;3.87;;;1.37;;
946;SDS011;460;48.734;9.152;2023-09-18T07:23:20;2.60;;;1.10;;
946;SDS011;460;48.734;9.152;2023-09-18T07:25:47;2.10;;;1.13;;
946;SDS011;460;48.734;9.152;2023-09-18T07:28:14;0.97;;;0.90;;
946;SDS011;460;48.734;9.152;2023-09-18T07:30:43;1.33;;;1.13;;
946;SDS011;460;48.734;9.152;2023-09-18T07:33:12;1.20;;;0.63;;
946;SDS011;460;48.734;9.152;2023-09-18T07:35:44;0.83;;;0.70;;
946;SDS011;460;48.734;9.152;2023-09-18T07:38:13;1.77;;;1.67;;
946;SDS011;460;48.734;9.152;2023-09-18T07:40:41;2.53;;;0.97;;
946;SDS011;460;48.734;9.152;2023-09-18T07:43:08;4.53;;;1.90;;
946;SDS011;460;48.734;9.152;2023-09-18T07:45:37;1.87;;;0.97;;
946;SDS011;460;48.734;9.152;2023-09-18T07:48:05;1.83;;;1.10;;
946;SDS011;460;48.734;9.152;2023-09-18T07:50:34;1.03;;;0.80;;
946;SDS011;460;48.734;9.152;2023-09-18T07:53:01;1.17;;;0.70;;
946;SDS011;460;48.734;9.152;2023-09-18T07:55:28;2.50;;;1.20;;
946;SDS011;460;48.734;9.152;2023-09-18T07:57:56;0.80;;;0.80;;
946;SDS011;460;48.734;9.152;2023-09-18T08:00:24;1.13;;;0.93;;
946;SDS011;460;48.734;9.152;2023-09-18T08:02:52;1.20;;;0.70;;
946;SDS011;460;48.734;9.152;2023-09-18T08:05:24;1.67;;;1.20;;
946;SDS011;460;48.734;9.152;2023-09-18T08:07:54;2.10;;;1.10;;
946;SDS011;460;48.734;9.152;2023-09-18T08:10:22;6.90;;;0.67;;
946;SDS011;460;48.734;9.152;2023-09-18T08:12:48;1.47;;;0.90;;
946;SDS011;460;48.734;9.152;2023-09-18T08:15:17;0.80;;;0.60;;
946;SDS011;460;48.734;9.152;2023-09-18T08:17:44;0.60;;;0.50;;
946;SDS011;460;48.734;9.152;2023-09-18T08:20:12;3.63;;;0.80;;
946;SDS011;460;48.734;9.152;2023-09-18T08:22:40;0.60;;;0.60;;
946;SDS011;460;48.734;9.152;2023-09-18T08:25:09;1.53;;;1.17;;
946;SDS011;460;48.734;9.152;2023-09-18T08:27:37;0.60;;;0.43;;
946;SDS011;460;48.734;9.152;2023-09-18T08:30:07;1.43;;;0.80;;
946;SDS011;460;48.734;9.152;2023-09-18T08:32:35;2.03;;;1.13;;
946;SDS011;460;48.734;9.152;2023-09-18T08:35:03;1.37;;;0.70;;
946;SDS011;460;48.734;9.152;2023-09-18T08:37:30;0.67;;;0.57;;
946;SDS011;460;48.734;9.152;2023-09-18T08:39:57;0.60;;;0.60;;
946;SDS011;460;48.734;9.152;2023-09-18T08:42:25;4.73;;;1.07;;
946;SDS011;460;48.734;9.152;2023-09-18T08:45:38;0.80;;;0.80;;
946;SDS011;460;48.734;9.152;2023-09-18T08:47:49;1.20;;;0.90;;
946;SDS011;460;48.734;9.152;2023-09-18T08:50:18;0.50;;;0.50;;
946;SDS011;460;48.734;9.152;2023-09-18T08:52:46;2.57;;;1.37;;
946;SDS011;460;48.734;9.152;2023-09-18T08:55:13;2.43;;;0.67;;
946;SDS011;460;48.734;9.152;2023-09-18T08:57:42;0.93;;;0.80;;
946;SDS011;460;48.734;9.152;2023-09-18T09:00:11;1.20;;;0.67;;
946;SDS011;460;48.734;9.152;2023-09-18T09:02:43;0.80;;;0.60;;
946;SDS011;460;48.734;9.152;2023-09-18T09:05:10;0.60;;;0.43;;
946;SDS011;460;48.734;9.152;2023-09-18T09:07:37;0.80;;;0.80;;
946;SDS011;460;48.734;9.152;2023-09-18T09:10:04;0.97;;;0.80;;
946;SDS011;460;48.734;9.152;2023-09-18T09:15:20;0.97;;;0.97;;
946;SDS011;460;48.734;9.152;2023-09-18T09:17:48;1.03;;;0.67;;
946;SDS011;460;48.734;9.152;2023-09-18T09:20:16;2.10;;;1.00;;
946;SDS011;460;48.734;9.152;2023-09-18T09:22:44;1.37;;;1.27;;
946;SDS011;460;48.734;9.152;2023-09-18T09:27:59;1.33;;;0.70;;
946;SDS011;460;48.734;9.152;2023-09-18T09:30:28;1.03;;;0.83;;
946;SDS011;460;48.734;9.152;2023-09-18T09:32:56;1.20;;;1.10;;
946;SDS011;460;48.734;9.152;2023-09-18T09:35:24;1.27;;;1.07;;
946;SDS011;460;48.734;9.152;2023-09-18T09:37:56;1.10;;;0.80;;
946;SDS011;460;48.734;9.152;2023-09-18T09:40:24;1.33;;;0.70;;
946;SDS011;460;48.734;9.152;2023-09-18T09:42:52;3.13;;;0.87;;
946;SDS011;460;48.734;9.152;2023-09-18T09:45:26;0.97;;;0.80;;
946;SDS011;460;48.734;9.152;2023-09-18T09:47:55;2.63;;;1.27;;
946;SDS011;460;48.734;9.152;2023-09-18T09:50:23;1.00;;;0.83;;
946;SDS011;460;48.734;9.152;2023-09-18T09:52:52;1.00;;;0.90;;
946;SDS011;460;48.734;9.152;2023-09-18T09:55:20;3.23;;;1.00;;
946;SDS011;460;48.734;9.152;2023-09-18T09:57:50;2.30;;;1.03;;
946;SDS011;460;48.734;9.152;2023-09-18T10:00:19;1.20;;;1.10;;
946;SDS011;460;48.734;9.152;2023-09-18T10:02:53;1.67;;;0.87;;
946;SDS011;460;48.734;9.152;2023-09-18T10:05:24;1.43;;;1.13;;
946;SDS011;460;48.734;9.152;2023-09-18T10:07:54;1.10;;;1.00;;
946;SDS011;460;48.734;9.152;2023-09-18T10:10:26;5.30;;;1.00;;
946;SDS011;460;48.734;9.152;2023-09-18T10:12:57;1.87;;;1.10;;
946;SDS011;460;48.734;9.152;2023-09-18T10:15:27;1.30;;;1.07;;
946;SDS011;460;48.734;9.152;2023-09-18T10:18:00;2.57;;;1.93;;
946;SDS011;460;48.734;9.152;2023-09-18T10:20:29;4.60;;;0.93;;
946;SDS011;460;48.734;9.152;2023-09-18T10:22:57;3.70;;;1.33;;
946;SDS011;460;48.734;9.152;2023-09-18T10:25:31;2.33;;;1.13;;
946;SDS011;460;48.734;9.152;2023-09-18T10:28:01;1.40;;;1.30;;
946;SDS011;460;48.734;9.152;2023-09-18T10:30:32;0.77;;;0.77;;
946;SDS011;460;48.734;9.152;2023-09-18T10:33:04;2.33;;;1.97;;
946;SDS011;460;48.734;9.152;2023-09-18T10:35:34;1.27;;;1.17;;
946;SDS011;460;48.734;9.152;2023-09-18T10:38:03;1.80;;;1.10;;
946;SDS011;460;48.734;9.152;2023-09-18T10:40:33;1.10;;;1.10;;
946;SDS011;460;48.734;9.152;2023-09-18T10:43:02;1.73;;;1.40;;
946;SDS011;460;48.734;9.152;2023-09-18T10:45:35;1.80;;;0.87;;
946;SDS011;460;48.734;9.152;2023-09-18T10:48:05;1.10;;;0.80;;
946;SDS011;460;48.734;9.152;2023-09-18T10:50:35;1.23;;;0.80;;
946;SDS011;460;48.734;9.152;2023-09-18T10:53:07;1.90;;;1.20;;
946;SDS011;460;48.734;9.152;2023-09-18T10:55:38;1.00;;;0.90;;
946;SDS011;460;48.734;9.152;2023-09-18T10:58:07;1.23;;;1.03;;
946;SDS011;460;48.734;9.152;2023-09-18T11:00:36;4.70;;;1.43;;
946;SDS011;460;48.734;9.152;2023-09-18T11:03:10;3.67;;;0.93;;
946;SDS011;460;48.734;9.152;2023-09-18T11:05:42;2.70;;;1.17;;
946;SDS011;460;48.734;9.152;2023-09-18T11:08:29;1.33;;;1.00;;
946;SDS011;460;48.734;9.152;2023-09-18T11:11:02;1.20;;;1.00;;
946;SDS011;460;48.734;9.152;2023-09-18T11:13:38;1.80;;;1.10;;
946;SDS011;460;48.734;9.152;2023-09-18T11:16:19;1.10;;;1.00;;
946;SDS011;460;48.734;9.152;2023-09-18T11:19:07;1.33;;;0.80;;
946;SDS011;460;48.734;9.152;2023-09-18T11:21:40;2.40;;;0.70;;
946;SDS011;460;48.734;9.152;2023-09-18T11:24:15;4.00;;;1.40;;
946;SDS011;460;48.734;9.152;2023-09-18T11:26:47;0.70;;;0.70;;
946;SDS011;460;48.734;9.152;2023-09-18T11:29:16;1.10;;;1.00;;
946;SDS011;460;48.734;9.152;2023-09-18T11:31:48;0.77;;;0.77;;
946;SDS011;460;48.734;9.152;2023-09-18T11:34:22;1.63;;;1.53;;
946;SDS011;460;48.734;9.152;2023-09-18T11:36:52;2.47;;;1.50;;
946;SDS011;460;48.734;9.152;2023-09-18T11:39:35;2.60;;;0.97;;
946;SDS011;460;48.734;9.152;2023-09-18T11:42:07;0.83;;;0.80;;
946;SDS011;460;48.734;9.152;2023-09-18T11:44:37;1.00;;;0.90;;
946;SDS011;460;48.734;9.152;2023-09-18T11:47:12;3.57;;;1.10;;
946;SDS011;460;48.734;9.152;2023-09-18T11:49:48;1.00;;;1.00;;
946;SDS011;460;48.734;9.152;2023-09-18T11:52:20;1.10;;;1.00;;
946;SDS011;460;48.734;9.152;2023-09-18T11:54:48;1.20;;;1.10;;
946;SDS011;460;48.734;9.152;2023-09-18T11:57:17;3.40;;;1.30;;
946;SDS011;460;48.734;9.152;2023-09-18T11:59:46;1.10;;;1.00;;
946;SDS011;460;48.734;9.152;2023-09-18T12:02:17;5.33;;;1.07;;
946;SDS011;460;48.734;9.152;2023-09-18T12:04:55;1.73;;;1.63;;
946;SDS011;460;48.734;9.152;2023-09-18T12:07:23;1.27;;;1.17;;
946;SDS011;460;48.734;9.152;2023-09-18T12:09:51;1.33;;;0.60;;
946;SDS011;460;48.734;9.152;2023-09-18T12:12:19;1.47;;;0.60;;
946;SDS011;460;48.734;9.152;2023-09-18T12:14:47;1.10;;;1.00;;
946;SDS011;460;48.734;9.152;2023-09-18T12:17:15;0.80;;;0.80;;
946;SDS011;460;48.734;9.152;2023-09-18T12:19:52;1.87;;;1.27;;
946;SDS011;460;48.734;9.152;2023-09-18T12:22:24;3.73;;;1.40;;
946;SDS011;460;48.734;9.152;2023-09-18T12:24:52;1.90;;;0.90;;
946;SDS011;460;48.734;9.152;2023-09-18T12:27:19;0.90;;;0.90;;
946;SDS011;460;48.734;9.152;2023-09-18T12:29:46;2.77;;;2.57;;
946;SDS011;460;48.734;9.152;2023-09-18T12:32:14;1.47;;;1.10;;
946;SDS011;460;48.734;9.152;2023-09-18T12:34:42;0.60;;;0.60;;
946;SDS011;460;48.734;9.152;2023-09-18T12:37:12;1.00;;;0.90;;
946;SDS011;460;48.734;9.152;2023-09-18T12:39:39;1.60;;;1.00;;
946;SDS011;460;48.734;9.152;2023-09-18T12:42:06;1.90;;;1.00;;
946;SDS011;460;48.734;9.152;2023-09-18T12:44:33;0.93;;;0.93;;
946;SDS011;460;48.734;9.152;2023-09-18T12:47:00;0.87;;;0.87;;
946;SDS011;460;48.734;9.152;2023-09-18T12:49:29;1.80;;;0.77;;
946;SDS011;460;48.734;9.152;2023-09-18T12:51:57;2.60;;;1.03;;
946;SDS011;460;48.734;9.152;2023-09-18T12:54:39;1.53;;;0.87;;
946;SDS011;460;48.734;9.152;2023-09-18T12:57:07;1.00;;;1.00;;
946;SDS011;460;48.734;9.152;2023-09-18T12:59:36;1.87;;;1.37;;
946;SDS011;460;48.734;9.152;2023-09-18T13:02:03;1.37;;;0.60;;
946;SDS011;460;48.734;9.152;2023-09-18T13:04:34;0.70;;;0.70;;
946;SDS011;460;48.734;9.152;2023-09-18T13:07:03;2.00;;;0.80;;
946;SDS011;460;48.734;9.152;2023-09-18T13:09:32;0.67;;;0.67;;
946;SDS011;460;48.734;9.152;2023-09-18T13:12:05;1.60;;;1.17;;
946;SDS011;460;48.734;9.152;2023-09-18T13:17:23;0.80;;;0.80;;
946;SDS011;460;48.734;9.152;2023-09-18T13:19:54;1.43;;;0.73;;
946;SDS011;460;48.734;9.152;2023-09-18T13:22:22;1.00;;;0.90;;
946;SDS011;460;48.734;9.152;2023-09-18T13:24:54;2.00;;;1.10;;
946;SDS011;460;48.734;9.152;2023-09-18T13:27:24;0.93;;;0.80;;
946;SDS011;460;48.734;9.152;2023-09-18T13:29:51;0.90;;;0.90;;
946;SDS011;460;48.734;9.152;2023-09-18T13:32:19;3.20;;;0.80;;
946;SDS011;460;48.734;9.152;2023-09-18T13:34:46;1.73;;;0.80;;
946;SDS011;460;48.734;9.152;2023-09-18T13:37:13;1.10;;;1.00;;
946;SDS011;460;48.734;9.152;2023-09-18T13:39:42;0.90;;;0.90;;
946;SDS011;460;48.734;9.152;2023-09-18T13:42:24;1.27;;;1.17;;
946;SDS011;460;48.734;9.152;2023-09-18T13:44:58;0.57;;;0.57;;
946;SDS011;460;48.734;9.152;2023-09-18T13:47:25;0.93;;;0.80;;
946;SDS011;460;48.734;9.152;2023-09-18T13:49:53;1.03;;;0.87;;
946;SDS011;460;48.734;9.152;2023-09-18T13:52:22;1.20;;;1.10;;
946;SDS011;460;48.734;9.152;2023-09-18T13:54:49;2.17;;;0.93;;
946;SDS011;460;48.734;9.152;2023-09-18T13:57:17;2.10;;;1.57;;
946;SDS011;460;48.734;9.152;2023-09-18T13:59:46;0.73;;;0.70;;
946;SDS011;460;48.734;9.152;2023-09-18T14:02:14;1.13;;;1.00;;
946;SDS011;460;48.734;9.152;2023-09-18T14:04:42;0.70;;;0.70;;
946;SDS011;460;48.734;9.152;2023-09-18T14:07:09;0.80;;;0.80;;
946;SDS011;460;48.734;9.152;2023-09-18T14:09:37;0.90;;;0.90;;
946;SDS011;460;48.734;9.152;2023-09-18T14:12:04;0.80;;;0.73;;
946;SDS011;460;48.734;9.152;2023-09-18T14:14:32;2.10;;;0.80;;
946;SDS011;460;48.734;9.152;2023-09-18T14:17:01;1.17;;;0.97;;
946;SDS011;460;48.734;9.152;2023-09-18T14:19:31;1.87;;;1.10;;
946;SDS011;460;48.734;9.152;2023-09-18T14:21:58;1.63;;;1.03;;
946;SDS011;460;48.734;9.152;2023-09-18T14:24:28;1.53;;;1.10;;
946;SDS011;460;48.734;9.152;2023-09-18T14:26:55;2.63;;;1.90;;
946;SDS011;460;48.734;9.152;2023-09-18T14:29:22;0.77;;;0.70;;
946;SDS011;460;48.734;9.152;2023-09-18T14:31:49;1.47;;;1.03;;
946;SDS011;460;48.734;9.152;2023-09-18T14:34:17;1.53;;;1.10;;
946;SDS011;460;48.734;9.152;2023-09-18T14:36:44;1.10;;;1.00;;
946;SDS011;460;48.734;9.152;2023-09-18T14:39:11;1.10;;;0.90;;
946;SDS011;460;48.734;9.152;2023-09-18T14:41:38;0.73;;;0.70;;
946;SDS011;460;48.734;9.152;2023-09-18T14:44:07;1.60;;;1.10;;
946;SDS011;460;48.734;9.152;2023-09-18T14:46:35;1.73;;;0.70;;
946;SDS011;460;48.734;9.152;2023-09-18T14:49:03;1.83;;;0.83;;
946;SDS011;460;48.734;9.152;2023-09-18T14:51:31;1.70;;;1.10;;
946;SDS011;460;48.734;9.152;2023-09-18T14:53:59;2.53;;;0.87;;
946;SDS011;460;48.734;9.152;2023-09-18T14:56:27;1.53;;;1.23;;
946;SDS011;460;48.734;9.152;2023-09-18T14:58:53;0.80;;;0.80;;
946;SDS011;460;48.734;9.152;2023-09-18T15:01:21;1.07;;;1.00;;
946;SDS011;460;48.734;9.152;2023-09-18T15:03:48;1.30;;;1.20;;
946;SDS011;460;48.734;9.152;2023-09-18T15:06:15;0.87;;;0.87;;
946;SDS011;460;48.734;9.152;2023-09-18T15:08:43;1.13;;;1.10;;
946;SDS011;460;48.734;9.152;2023-09-18T15:11:10;1.77;;;1.00;;
946;SDS011;460;48.734;9.152;2023-09-18T15:13:38;0.80;;;0.80;;
946;SDS011;460;48.734;9.152;2023-09-18T15:16:04;2.00;;;0.87;;
946;SDS011;460;48.734;9.152;2023-09-18T15:18:31;3.07;;;1.40;;
946;SDS011;460;48.734;9.152;2023-09-18T15:20:58;1.57;;;1.27;;
946;SDS011;460;48.734;9.152;2023-09-18T15:23:25;1.73;;;1.00;;
946;SDS011;460;48.734;9.152;2023-09-18T15:25:54;1.13;;;0.80;;
946;SDS011;460;48.734;9.152;2023-09-18T15:28:21;0.73;;;0.67;;
946;SDS011;460;48.734;9.152;2023-09-18T15:30:49;1.10;;;1.00;;
946;SDS011;460;48.734;9.152;2023-09-18T15:33:17;1.97;;;0.90;;
946;SDS011;460;48.734;9.152;2023-09-18T15:35:44;1.33;;;0.70;;
946;SDS011;460;48.734;9.152;2023-09-18T15:38:11;1.30;;;0.70;;
946;SDS011;460;48.734;9.152;2023-09-18T15:40:37;3.67;;;0.70;;
946;SDS011;460;48.734;9.152;2023-09-18T15:43:06;1.37;;;0.63;;
946;SDS011;460;48.734;9.152;2023-09-18T15:45:32;1.13;;;1.03;;
946;SDS011;460;48.734;9.152;2023-09-18T15:48:00;2.13;;;0.60;;
946;SDS011;460;48.734;9.152;2023-09-18T15:50:27;0.60;;;0.60;;
946;SDS011;460;48.734;9.152;2023-09-18T15:52:54;1.20;;;0.90;;
946;SDS011;460;48.734;9.152;2023-09-18T15:55:21;0.97;;;0.80;;
946;SDS011;460;48.734;9.152;2023-09-18T15:57:48;1.77;;;1.03;;
946;SDS011;460;48.734;9.152;2023-09-18T16:00:18;2.80;;;0.90;;
946;SDS011;460;48.734;9.152;2023-09-18T16:02:45;2.97;;;1.10;;
946;SDS011;460;48.734;9.152;2023-09-18T16:05:13;2.23;;;1.10;;